KDLZKLOM

Guest
Details From KDLZ - DELAWARE MUNI
To KLOM - Wings Field
Flight Number -
Tags generated
Created
Modified
Stats Distance 360 nm / 667 km
Max Altitude 35,000 ft / 10,668 m
Waypoints 8
Social Downloads 0
Likes 0
Share VATSIM

Download

Looking for another format? Having issues loading an existing format? Contact us
Advertisement - Login to hide

Notes

Basic altitude profile: - Ascent Rate: 1200ft/min - Ascent Speed: 100kts - Cruise Altitude: 17500ft - Cruise Speed: 220kts - Descent Rate: 1000ft/min - Descent Speed: 175kts Options: - Use NATs: yes - Use PACOTS: yes - Use low airways: no - Use high airways: yes

Route

KDLZ BLISS J152 LOMON KLOM

ID Type Via Altitude Latitude Longitude Leg Dist Tot Dist Heading (true) Name
O KDLZ APT - 0 ft / 0 m 40.27970˚ -83.11480˚ - 0 nm - DELAWARE MUNI
BLISS FIX - 17,700 ft / 5,395 m 40.32740˚ -81.97272˚ 52 nm 52 nm 86° / 87° -
AVERE FIX J152 (AWY-HI) 35,000 ft / 10,668 m 40.33104˚ -80.05732˚ 87 nm 140 nm 89° / 90° -
JST VOR J152 (AWY-HI) 35,000 ft / 10,668 m 40.31672˚ -78.83417˚ 56 nm 196 nm 90° / 91° JOHNSTOWN VORTAC
MIROY FIX J152 (AWY-HI) 29,400 ft / 8,961 m 40.31548˚ -78.35742˚ 21 nm 217 nm 90° / 90° -
COFAX FIX J152 (AWY-HI) 25,600 ft / 7,803 m 40.31298˚ -77.96694˚ 17 nm 235 nm 90° / 91° -
LOMON FIX J152 (AWY-HI) 21,900 ft / 6,675 m 40.30807˚ -77.48340˚ 22 nm 257 nm 91° / 91° -
O KLOM APT - 0 ft / 0 m 40.13756˚ -75.26513˚ 102 nm 360 nm 95° / 96° Wings Field

Altitude Profile

Advertisement - Login to hide

Weather


0- 5 10 15 20 25 30 35+ Temperature / ° C

Clouds and Precipitation
Forecast for 2017-12-12 18:00 UTC. Updated an hour ago

Ground ~20,000 ft ~40,000 ft Winds

KDLZ

Details ICAO KDLZ
Name DELAWARE MUNI
Region United States
Timezone America/New_York (UTC-5.0)
Stats Elevation 945 ft / 288 m (AMSL)
Location 40.279702° -83.114801°
Runways 1
Magnetic Variation 7.088° W

METAR

KDLZ 121355Z AUTO 32013G20KT 10SM SCT034 SCT040 OVC070 M03/M07 A2983 RMK AO2

Decode

TAF

Not found

Departure Runways

ID Width Length Bearing (true) Bearing (mag) Surface Threshold Offset Overrun Length
10 100 ft / 30 m 4,989 ft / 1,521 m 98.37° 105.46° Asphalt 0 ft / 0 m 0 ft / 0 m
28 100 ft / 30 m 4,989 ft / 1,521 m 278.38° 285.47° Asphalt 0 ft / 0 m 0 ft / 0 m

KLOM

Details ICAO KLOM (BBX)
Name Wings Field
Region United States
Timezone America/New_York (UTC-5.0)
Stats Elevation 301 ft / 92 m (AMSL)
Location 40.137564° -75.265131°
Runways 1
Magnetic Variation 12.106° W

METAR

KLOM 121355Z AUTO 00000KT 10SM OVC075 06/01 A2960 RMK AO1

Decode

TAF

Not found

Destination Runways

ID Width Length Bearing (true) Bearing (mag) Surface Threshold Offset Overrun Length
06 75 ft / 23 m 3,703 ft / 1,129 m 53.00° 65.11° Asphalt 177 ft / 54 m 102 ft / 31 m
24 75 ft / 23 m 3,703 ft / 1,129 m 233.01° 245.12° Asphalt 0 ft / 0 m 0 ft / 0 m

Popular Alternatives